createdAt,value
2023-06-27T00:00:45.674Z,42.90
2023-06-27T00:03:15.020Z,43.10
2023-06-27T00:05:44.311Z,42.90
2023-06-27T00:08:14.091Z,43.30
2023-06-27T00:10:43.717Z,43.10
2023-06-27T00:13:17.348Z,42.70
2023-06-27T00:15:54.424Z,42.90
2023-06-27T00:18:24.114Z,43.00
2023-06-27T00:20:53.618Z,43.00
2023-06-27T00:23:25.483Z,43.00
2023-06-27T00:25:54.589Z,43.10
2023-06-27T00:28:23.758Z,43.30
2023-06-27T00:30:54.593Z,43.40
2023-06-27T00:33:24.539Z,43.40
2023-06-27T00:35:53.887Z,43.60
2023-06-27T00:38:23.001Z,44.30
2023-06-27T00:40:52.500Z,43.60
2023-06-27T00:43:22.138Z,43.60
2023-06-27T00:45:52.525Z,43.60
2023-06-27T00:48:23.482Z,43.60
2023-06-27T00:50:56.904Z,43.90
2023-06-27T00:53:26.022Z,44.20
2023-06-27T00:55:56.406Z,44.10
2023-06-27T00:58:28.194Z,44.10
2023-06-27T01:01:02.152Z,44.20
2023-06-27T01:03:33.753Z,44.20
2023-06-27T01:06:10.341Z,44.40
2023-06-27T01:08:43.620Z,44.30
2023-06-27T01:11:19.570Z,44.50
2023-06-27T01:13:51.674Z,44.40
2023-06-27T01:16:23.158Z,44.50
2023-06-27T01:18:54.375Z,44.80
2023-06-27T01:21:27.060Z,44.80
2023-06-27T01:24:00.543Z,45.10
2023-06-27T01:26:29.846Z,45.00
2023-06-27T01:28:58.987Z,45.40
2023-06-27T01:31:33.553Z,45.60
2023-06-27T01:34:07.017Z,45.60
2023-06-27T01:36:42.127Z,45.60
2023-06-27T01:39:17.447Z,45.70
2023-06-27T01:41:52.534Z,45.50
2023-06-27T01:44:22.958Z,45.50
2023-06-27T01:46:54.123Z,45.60
2023-06-27T01:49:24.350Z,45.70
2023-06-27T01:51:57.260Z,45.90
2023-06-27T01:54:27.722Z,46.10
2023-06-27T01:56:56.780Z,46.10
2023-06-27T01:59:25.893Z,46.30
2023-06-27T02:01:55.199Z,46.50
2023-06-27T02:04:24.299Z,46.60
2023-06-27T02:06:53.810Z,46.70
2023-06-27T02:09:22.859Z,46.60
2023-06-27T02:11:53.586Z,46.40
2023-06-27T02:14:22.824Z,46.40
2023-06-27T02:16:52.688Z,46.40
2023-06-27T02:19:21.857Z,46.70
2023-06-27T02:21:51.817Z,46.60
2023-06-27T02:24:21.832Z,46.70
2023-06-27T02:26:50.874Z,46.70
2023-06-27T02:29:21.278Z,46.70
2023-06-27T02:31:50.363Z,46.90
2023-06-27T02:34:19.503Z,47.30
2023-06-27T02:36:48.767Z,46.80
2023-06-27T02:39:17.873Z,47.00
2023-06-27T02:41:46.810Z,47.00
2023-06-27T02:44:15.983Z,47.20
2023-06-27T02:46:46.563Z,47.40
2023-06-27T02:49:15.870Z,47.70
2023-06-27T02:51:44.976Z,47.50
2023-06-27T02:54:14.071Z,47.60
2023-06-27T02:56:43.781Z,47.70
2023-06-27T02:59:12.886Z,47.70
2023-06-27T03:01:42.113Z,47.70
2023-06-27T03:04:19.668Z,47.80
2023-06-27T03:06:51.613Z,48.00
2023-06-27T03:09:21.497Z,48.00
2023-06-27T03:11:50.576Z,48.30
2023-06-27T03:14:24.370Z,48.40
2023-06-27T03:16:56.569Z,48.50
2023-06-27T03:19:38.792Z,48.50
2023-06-27T03:22:12.887Z,48.60
2023-06-27T03:24:41.941Z,48.50
2023-06-27T03:27:10.863Z,48.70
2023-06-27T03:29:42.807Z,49.00
2023-06-27T03:32:13.864Z,49.30
2023-06-27T03:34:44.909Z,49.20
2023-06-27T03:37:15.046Z,49.10
2023-06-27T03:39:44.141Z,49.10
2023-06-27T03:42:13.086Z,49.10
2023-06-27T03:44:42.047Z,49.10
2023-06-27T03:47:11.127Z,49.10
2023-06-27T03:49:40.440Z,49.30
2023-06-27T03:52:12.433Z,49.30
2023-06-27T03:54:41.576Z,49.40
2023-06-27T03:57:11.086Z,49.50
2023-06-27T03:59:41.307Z,49.50
2023-06-27T04:02:10.566Z,49.50
2023-06-27T04:04:40.190Z,49.50
2023-06-27T04:07:11.690Z,49.70
2023-06-27T04:09:40.537Z,49.80
2023-06-27T04:12:10.881Z,49.70
2023-06-27T04:14:39.727Z,49.70
2023-06-27T04:17:09.462Z,49.60
2023-06-27T04:19:38.496Z,49.60
2023-06-27T04:22:07.852Z,49.80
2023-06-27T04:24:38.662Z,49.70
2023-06-27T04:27:10.434Z,49.70
2023-06-27T04:29:39.615Z,49.70
2023-06-27T04:32:09.738Z,49.80
2023-06-27T04:34:38.894Z,49.90
2023-06-27T04:37:07.960Z,49.80
2023-06-27T04:39:38.339Z,50.00
2023-06-27T04:42:08.061Z,49.90
2023-06-27T04:44:37.437Z,49.80
2023-06-27T04:47:06.630Z,50.00
2023-06-27T04:49:35.826Z,50.00
2023-06-27T04:52:05.675Z,50.20
2023-06-27T04:54:34.723Z,50.10
2023-06-27T04:57:12.438Z,50.30
2023-06-27T04:59:42.075Z,50.60
2023-06-27T05:02:11.173Z,50.70
2023-06-27T05:04:40.298Z,50.60
2023-06-27T05:07:09.441Z,50.50
2023-06-27T05:09:38.816Z,50.50
2023-06-27T05:12:10.167Z,50.80
2023-06-27T05:14:39.759Z,50.90
2023-06-27T05:17:09.254Z,50.60
2023-06-27T05:19:38.310Z,50.60
2023-06-27T05:22:07.464Z,50.70
2023-06-27T05:24:37.326Z,50.60
2023-06-27T05:27:09.675Z,50.40
2023-06-27T05:29:38.777Z,50.50
2023-06-27T05:32:08.358Z,50.60
2023-06-27T05:34:37.415Z,50.70
2023-06-27T05:37:06.918Z,50.60
2023-06-27T05:39:35.994Z,50.50
2023-06-27T05:42:05.626Z,50.70
2023-06-27T05:44:36.168Z,51.00
2023-06-27T05:47:05.756Z,50.60
2023-06-27T05:49:34.645Z,50.40
2023-06-27T05:52:03.853Z,51.00
2023-06-27T05:54:32.955Z,50.60
2023-06-27T05:57:02.149Z,50.50
2023-06-27T05:59:31.296Z,50.50
2023-06-27T06:02:02.140Z,50.70
2023-06-27T06:04:31.459Z,50.30
2023-06-27T06:07:00.929Z,50.40
2023-06-27T06:09:30.044Z,50.30
2023-06-27T06:11:59.829Z,50.40
2023-06-27T06:14:28.893Z,50.40
2023-06-27T06:16:57.967Z,51.00
2023-06-27T06:19:28.312Z,51.40
2023-06-27T06:21:57.968Z,51.10
2023-06-27T06:24:30.036Z,50.70
2023-06-27T06:26:59.206Z,50.40
2023-06-27T06:29:29.687Z,50.10
2023-06-27T06:31:59.009Z,50.10
2023-06-27T06:34:29.416Z,50.40
2023-06-27T06:36:58.682Z,50.30
2023-06-27T06:39:27.798Z,50.30
2023-06-27T06:41:57.848Z,50.00
2023-06-27T06:44:27.941Z,49.90
2023-06-27T06:46:56.988Z,50.10
2023-06-27T06:49:26.228Z,50.30
2023-06-27T06:51:56.582Z,50.10
2023-06-27T06:54:25.993Z,49.60
2023-06-27T06:56:55.169Z,49.50
2023-06-27T06:59:24.173Z,49.50
2023-06-27T07:01:53.859Z,48.90
2023-06-27T07:04:23.047Z,48.70
2023-06-27T07:06:52.217Z,48.90
2023-06-27T07:09:22.778Z,48.50
2023-06-27T07:11:52.408Z,47.70
2023-06-27T07:14:21.986Z,48.50
2023-06-27T07:16:51.142Z,48.70
2023-06-27T07:19:20.252Z,48.60
2023-06-27T07:21:49.182Z,47.90
2023-06-27T07:24:18.182Z,47.20
2023-06-27T07:26:48.402Z,47.30
2023-06-27T07:29:18.561Z,47.10
2023-06-27T07:31:47.612Z,47.10
2023-06-27T07:34:17.913Z,46.10
2023-06-27T07:36:48.629Z,46.10
2023-06-27T07:39:17.546Z,46.50
2023-06-27T07:41:47.782Z,46.60
2023-06-27T07:44:16.735Z,46.30
2023-06-27T07:46:45.740Z,46.50
2023-06-27T07:49:15.342Z,47.00
2023-06-27T07:51:44.531Z,47.00
2023-06-27T07:54:13.518Z,47.10
2023-06-27T07:56:45.627Z,46.60
2023-06-27T07:59:17.949Z,46.90
2023-06-27T08:01:47.093Z,46.80
2023-06-27T08:04:17.045Z,46.40
2023-06-27T08:06:46.264Z,46.50
2023-06-27T08:09:15.525Z,47.10
2023-06-27T08:11:44.687Z,46.10
2023-06-27T08:14:13.719Z,46.40
2023-06-27T08:16:44.292Z,45.90
2023-06-27T08:19:14.530Z,45.70
2023-06-27T08:21:43.832Z,45.60
2023-06-27T08:24:13.132Z,45.60
2023-06-27T08:26:42.587Z,45.30
2023-06-27T08:29:11.724Z,45.40
2023-06-27T08:31:41.460Z,45.40
2023-06-27T08:34:12.106Z,45.70
2023-06-27T08:36:41.191Z,45.20
2023-06-27T08:39:10.415Z,44.20
2023-06-27T08:41:39.552Z,44.30
2023-06-27T08:44:08.854Z,43.70
2023-06-27T08:46:38.527Z,43.20
2023-06-27T08:49:10.120Z,42.70
2023-06-27T08:51:41.798Z,42.40
2023-06-27T08:54:18.871Z,42.10
2023-06-27T08:56:48.726Z,41.20
2023-06-27T08:59:22.065Z,42.20
2023-06-27T09:01:56.656Z,41.40
2023-06-27T09:04:28.699Z,42.00
2023-06-27T09:07:01.257Z,42.60
2023-06-27T09:09:31.737Z,41.90
2023-06-27T09:12:04.550Z,40.60
2023-06-27T09:14:34.531Z,40.70
2023-06-27T09:17:06.002Z,41.20
2023-06-27T09:19:38.095Z,41.00
2023-06-27T09:22:19.114Z,39.80
2023-06-27T09:24:48.800Z,39.60
2023-06-27T09:27:32.116Z,40.00
2023-06-27T09:30:03.951Z,39.80
2023-06-27T09:32:33.588Z,40.00
2023-06-27T09:35:03.862Z,39.20
2023-06-27T09:40:19.688Z,40.20
2023-06-27T09:42:53.313Z,40.20
2023-06-27T09:45:25.062Z,40.00
2023-06-27T09:47:54.886Z,40.10
2023-06-27T09:50:27.485Z,40.20
2023-06-27T09:53:00.200Z,40.00
2023-06-27T09:55:31.748Z,40.00
2023-06-27T09:58:02.521Z,40.10
2023-06-27T10:00:31.764Z,40.60
2023-06-27T10:03:00.992Z,40.20
2023-06-27T10:05:33.508Z,40.90
2023-06-27T10:08:06.902Z,40.50
2023-06-27T10:10:36.685Z,40.80
2023-06-27T10:13:07.163Z,40.30
2023-06-27T10:15:36.927Z,40.30
2023-06-27T10:18:06.579Z,40.80
2023-06-27T10:20:35.927Z,40.30
2023-06-27T10:23:07.484Z,39.80
2023-06-27T10:25:36.715Z,39.80
2023-06-27T10:28:09.264Z,40.10
2023-06-27T10:30:45.169Z,40.00
2023-06-27T10:33:23.106Z,39.80
2023-06-27T10:35:55.121Z,39.90
2023-06-27T10:38:34.238Z,40.10
2023-06-27T10:41:13.925Z,39.90
2023-06-27T10:43:50.856Z,39.60
2023-06-27T10:46:21.394Z,39.70
2023-06-27T10:48:51.929Z,39.30
2023-06-27T10:51:22.466Z,39.70
2023-06-27T10:54:21.198Z,40.10
2023-06-27T10:56:55.257Z,39.30
2023-06-27T10:59:25.379Z,39.50
2023-06-27T11:01:55.830Z,39.20
2023-06-27T11:04:27.345Z,39.00
2023-06-27T11:07:01.853Z,39.10
2023-06-27T11:09:34.149Z,38.90
2023-06-27T11:12:12.827Z,38.80
2023-06-27T11:14:43.504Z,38.10
2023-06-27T11:17:13.457Z,39.00
2023-06-27T11:19:44.306Z,39.00
2023-06-27T11:22:15.729Z,39.20
2023-06-27T11:24:47.313Z,38.40
2023-06-27T11:27:16.564Z,38.50
2023-06-27T11:29:45.664Z,38.90
2023-06-27T11:32:14.778Z,37.60
2023-06-27T11:34:44.124Z,37.30
2023-06-27T11:37:13.845Z,38.00
2023-06-27T11:39:55.290Z,38.50
2023-06-27T11:42:34.909Z,37.90
2023-06-27T11:45:04.873Z,37.80
2023-06-27T11:47:33.974Z,38.10
2023-06-27T11:50:08.629Z,37.90
2023-06-27T11:52:38.163Z,37.10
2023-06-27T11:55:09.961Z,38.10
2023-06-27T11:57:44.061Z,37.20
2023-06-27T12:00:20.796Z,36.70
2023-06-27T12:02:52.416Z,37.40
2023-06-27T12:05:22.896Z,37.40
2023-06-27T12:08:02.813Z,37.20
2023-06-27T12:10:34.458Z,37.00
2023-06-27T12:13:04.688Z,37.10
2023-06-27T12:15:45.330Z,36.90
2023-06-27T12:18:25.057Z,36.60
2023-06-27T12:20:55.013Z,36.80
2023-06-27T12:23:24.433Z,37.00
2023-06-27T12:25:55.376Z,37.20
2023-06-27T12:28:26.032Z,37.00
2023-06-27T12:30:55.390Z,37.00
2023-06-27T12:33:24.472Z,37.10
2023-06-27T12:35:54.832Z,37.00
2023-06-27T12:38:23.919Z,36.40
2023-06-27T12:40:54.778Z,36.50
2023-06-27T12:43:23.917Z,36.20
2023-06-27T12:46:03.269Z,36.40
2023-06-27T12:48:34.175Z,37.20
2023-06-27T12:51:03.858Z,36.90
2023-06-27T12:53:33.067Z,36.90
2023-06-27T12:56:04.491Z,36.90
2023-06-27T12:58:34.258Z,36.60
2023-06-27T13:01:03.867Z,36.80
2023-06-27T13:03:33.248Z,36.50
2023-06-27T13:06:02.435Z,36.30
2023-06-27T13:08:31.498Z,36.60
2023-06-27T13:11:00.762Z,37.20
2023-06-27T13:13:34.953Z,37.20
2023-06-27T13:18:37.281Z,36.50
2023-06-27T13:21:07.504Z,36.90
2023-06-27T13:23:37.372Z,36.70
2023-06-27T13:26:06.737Z,36.70
2023-06-27T13:28:37.934Z,36.50
2023-06-27T13:31:07.117Z,36.70
2023-06-27T13:33:36.155Z,36.10
2023-06-27T13:36:06.478Z,36.40
2023-06-27T13:38:35.636Z,36.30
2023-06-27T13:41:05.020Z,35.50
2023-06-27T13:43:34.890Z,35.70
2023-06-27T13:46:05.239Z,36.10
2023-06-27T13:48:34.424Z,36.40
2023-06-27T13:51:04.186Z,36.50
2023-06-27T13:53:33.376Z,35.90
2023-06-27T13:56:03.949Z,35.90
2023-06-27T13:58:33.359Z,36.20
2023-06-27T14:01:02.941Z,35.80
2023-06-27T14:03:33.634Z,35.60
2023-06-27T14:06:02.909Z,35.60
2023-06-27T14:08:32.049Z,36.30
2023-06-27T14:11:01.170Z,36.30
2023-06-27T14:13:30.238Z,36.20
2023-06-27T14:15:59.748Z,36.50
2023-06-27T14:18:28.927Z,36.70
2023-06-27T14:20:59.355Z,36.60
2023-06-27T14:23:28.737Z,36.60
2023-06-27T14:25:57.749Z,36.40
2023-06-27T14:28:27.013Z,36.50
2023-06-27T14:30:56.238Z,36.60
2023-06-27T14:33:25.575Z,36.40
2023-06-27T14:35:55.373Z,36.50
2023-06-27T14:38:25.864Z,36.90
2023-06-27T14:40:54.775Z,37.30
2023-06-27T14:43:23.800Z,37.20
2023-06-27T14:45:52.777Z,36.30
2023-06-27T14:48:22.543Z,36.20
2023-06-27T14:50:51.740Z,36.10
2023-06-27T14:53:20.766Z,36.10
2023-06-27T14:55:51.970Z,35.60
2023-06-27T14:58:21.082Z,35.50
2023-06-27T15:00:50.264Z,35.40
2023-06-27T15:03:19.659Z,35.40
2023-06-27T15:05:49.686Z,35.70
2023-06-27T15:08:18.660Z,35.50
2023-06-27T15:10:47.637Z,35.50
2023-06-27T15:13:18.184Z,35.20
2023-06-27T15:15:47.399Z,35.60
2023-06-27T15:18:17.309Z,35.60
2023-06-27T15:20:46.545Z,35.80
2023-06-27T15:23:25.317Z,35.90
2023-06-27T15:26:02.582Z,36.00
2023-06-27T15:28:33.088Z,35.60
2023-06-27T15:31:02.476Z,35.40
2023-06-27T15:33:31.618Z,35.70
2023-06-27T15:36:00.776Z,35.50
2023-06-27T15:38:29.754Z,35.60
2023-06-27T15:40:58.809Z,35.80
2023-06-27T15:43:27.981Z,36.00
2023-06-27T15:46:02.477Z,36.60
2023-06-27T15:48:31.729Z,36.10
2023-06-27T15:51:01.564Z,36.00
2023-06-27T15:53:31.186Z,36.10
2023-06-27T15:56:00.218Z,36.10
2023-06-27T15:58:29.192Z,36.20
2023-06-27T16:00:59.969Z,36.00
2023-06-27T16:03:29.474Z,36.20
2023-06-27T16:05:58.628Z,36.30
2023-06-27T16:08:27.700Z,36.20
2023-06-27T16:10:56.890Z,36.40
2023-06-27T16:13:26.051Z,36.60
2023-06-27T16:15:55.240Z,36.10
2023-06-27T16:18:25.854Z,36.00
2023-06-27T16:20:54.954Z,36.20
2023-06-27T16:23:25.668Z,36.40
2023-06-27T16:25:57.204Z,36.70
2023-06-27T16:28:26.456Z,36.50
2023-06-27T16:30:55.657Z,36.60
2023-06-27T16:33:26.553Z,36.30
2023-06-27T16:35:55.787Z,36.50
2023-06-27T16:38:25.348Z,36.40
2023-06-27T16:40:54.443Z,36.70
2023-06-27T16:43:23.550Z,36.80
2023-06-27T16:45:52.632Z,36.20
2023-06-27T16:48:21.838Z,36.00
2023-06-27T16:50:52.197Z,36.00
2023-06-27T16:53:22.181Z,35.90
2023-06-27T16:55:51.299Z,36.10
2023-06-27T16:58:20.514Z,36.30
2023-06-27T17:00:49.877Z,36.10
2023-06-27T17:03:19.641Z,36.10
2023-06-27T17:05:51.347Z,36.20
2023-06-27T17:08:23.218Z,36.30
2023-06-27T17:10:52.312Z,36.30
2023-06-27T17:13:21.380Z,36.60
2023-06-27T17:15:50.464Z,36.50
2023-06-27T17:18:20.213Z,36.70
2023-06-27T17:20:49.667Z,36.80
2023-06-27T17:23:19.501Z,36.90
2023-06-27T17:25:49.875Z,37.00
2023-06-27T17:28:19.060Z,37.20
2023-06-27T17:30:48.046Z,37.20
2023-06-27T17:33:17.022Z,37.20
2023-06-27T17:35:47.564Z,37.40
2023-06-27T17:38:16.764Z,37.20
2023-06-27T17:40:45.648Z,37.30
2023-06-27T17:43:16.084Z,37.70
2023-06-27T17:45:45.085Z,37.70
2023-06-27T17:48:14.191Z,37.80
2023-06-27T17:50:43.326Z,37.80
2023-06-27T17:53:12.549Z,37.90
2023-06-27T17:55:41.445Z,37.70
2023-06-27T17:58:11.235Z,38.00
2023-06-27T18:00:42.651Z,38.00
2023-06-27T18:03:12.825Z,38.10
2023-06-27T18:05:42.499Z,38.20
2023-06-27T18:08:15.723Z,38.10
2023-06-27T18:10:45.146Z,38.40
2023-06-27T18:13:14.344Z,38.50
2023-06-27T18:15:45.084Z,38.40
2023-06-27T18:18:14.155Z,38.60
2023-06-27T18:20:45.309Z,38.70
2023-06-27T18:23:14.422Z,38.80
2023-06-27T18:25:43.392Z,39.30
2023-06-27T18:28:12.678Z,39.60
2023-06-27T18:30:42.082Z,38.90
2023-06-27T18:33:13.653Z,38.90
2023-06-27T18:35:42.749Z,39.10
2023-06-27T18:38:12.256Z,39.20
2023-06-27T18:40:41.780Z,39.10
2023-06-27T18:43:11.463Z,39.00
2023-06-27T18:45:40.820Z,39.30
2023-06-27T18:48:10.610Z,39.00
2023-06-27T18:50:41.584Z,39.20
2023-06-27T18:53:12.261Z,39.30
2023-06-27T18:55:41.248Z,39.20
2023-06-27T18:58:10.596Z,39.30
2023-06-27T19:00:40.248Z,39.50
2023-06-27T19:03:09.617Z,39.40
2023-06-27T19:05:41.087Z,39.70
2023-06-27T19:08:11.992Z,40.00
2023-06-27T19:10:43.597Z,39.80
2023-06-27T19:13:14.486Z,40.00
2023-06-27T19:15:44.069Z,39.70
2023-06-27T19:18:13.623Z,40.10
2023-06-27T19:20:44.431Z,40.30
2023-06-27T19:23:15.368Z,40.70
2023-06-27T19:25:44.343Z,41.40
2023-06-27T19:28:13.624Z,41.00
2023-06-27T19:30:43.061Z,40.50
2023-06-27T19:33:13.177Z,40.50
2023-06-27T19:35:42.653Z,41.00
2023-06-27T19:38:12.458Z,42.70
2023-06-27T19:40:43.318Z,43.30
2023-06-27T19:43:13.840Z,44.20
2023-06-27T19:45:43.082Z,44.80
2023-06-27T19:48:12.431Z,44.80
2023-06-27T19:50:41.723Z,45.70
2023-06-27T19:53:12.399Z,46.20
2023-06-27T19:55:42.915Z,46.50
2023-06-27T19:58:12.064Z,46.80
2023-06-27T20:00:41.220Z,46.80
2023-06-27T20:03:10.528Z,47.10
2023-06-27T20:05:40.796Z,47.10
2023-06-27T20:08:12.496Z,47.50
2023-06-27T20:10:43.404Z,47.20
2023-06-27T20:13:13.302Z,46.80
2023-06-27T20:15:42.622Z,46.70
2023-06-27T20:18:12.162Z,47.00
2023-06-27T20:20:41.710Z,47.40
2023-06-27T20:23:11.230Z,47.80
2023-06-27T20:25:40.359Z,48.10
2023-06-27T20:28:11.153Z,48.00
2023-06-27T20:30:40.336Z,48.40
2023-06-27T20:33:09.625Z,48.10
2023-06-27T20:35:40.847Z,48.40
2023-06-27T20:38:09.994Z,49.00
2023-06-27T20:40:41.041Z,49.40
2023-06-27T20:43:13.125Z,49.10
2023-06-27T20:45:42.129Z,48.70
2023-06-27T20:48:11.333Z,48.30
2023-06-27T20:50:40.534Z,49.00
2023-06-27T20:53:09.900Z,49.60
2023-06-27T20:55:39.067Z,49.20
2023-06-27T20:58:11.030Z,49.00
2023-06-27T21:00:43.431Z,49.00
2023-06-27T21:03:12.740Z,48.90
2023-06-27T21:05:42.079Z,48.90
2023-06-27T21:08:11.116Z,49.30
2023-06-27T21:10:41.119Z,49.20
2023-06-27T21:13:10.404Z,49.40
2023-06-27T21:15:39.753Z,49.70
2023-06-27T21:18:10.278Z,50.20
2023-06-27T21:20:39.536Z,50.10
2023-06-27T21:23:08.844Z,49.80
2023-06-27T21:25:37.901Z,50.40
2023-06-27T21:28:07.068Z,51.10
2023-06-27T21:30:35.987Z,51.40
2023-06-27T21:33:05.977Z,51.80
2023-06-27T21:35:36.431Z,51.90
2023-06-27T21:38:05.706Z,52.10
2023-06-27T21:40:34.616Z,52.40
2023-06-27T21:43:03.598Z,52.50
2023-06-27T21:45:32.971Z,52.80
2023-06-27T21:48:02.173Z,52.70
2023-06-27T21:50:32.418Z,53.20
2023-06-27T21:53:03.647Z,53.00
2023-06-27T21:55:32.937Z,52.70
2023-06-27T21:58:02.025Z,52.70
2023-06-27T22:00:31.899Z,53.30
2023-06-27T22:03:01.159Z,53.10
2023-06-27T22:05:31.417Z,53.50
2023-06-27T22:08:00.454Z,53.80
2023-06-27T22:10:31.216Z,54.00
2023-06-27T22:13:00.217Z,54.50
2023-06-27T22:15:29.161Z,54.90
2023-06-27T22:17:58.240Z,55.30
2023-06-27T22:20:28.121Z,55.50
2023-06-27T22:22:57.190Z,55.60
2023-06-27T22:25:26.392Z,56.00
2023-06-27T22:27:56.655Z,56.00
2023-06-27T22:30:25.576Z,56.30
2023-06-27T22:32:55.039Z,56.40
2023-06-27T22:35:24.513Z,56.40
2023-06-27T22:37:53.396Z,56.60
2023-06-27T22:40:23.717Z,56.90
2023-06-27T22:42:52.901Z,57.30
2023-06-27T22:45:23.480Z,57.30
2023-06-27T22:47:52.676Z,57.50
2023-06-27T22:50:21.648Z,57.60
2023-06-27T22:52:50.479Z,57.70
2023-06-27T22:55:19.899Z,58.00
2023-06-27T22:57:48.953Z,58.30
2023-06-27T23:00:19.034Z,57.90
2023-06-27T23:02:49.434Z,58.10
2023-06-27T23:05:18.664Z,58.30
2023-06-27T23:07:47.670Z,58.50
2023-06-27T23:10:16.881Z,58.70
2023-06-27T23:12:46.171Z,58.40
2023-06-27T23:15:15.154Z,58.40
2023-06-27T23:17:44.326Z,58.30
2023-06-27T23:20:17.134Z,58.50
2023-06-27T23:22:46.438Z,58.90
2023-06-27T23:25:19.261Z,59.00
2023-06-27T23:27:48.342Z,59.10
2023-06-27T23:30:17.947Z,58.80
2023-06-27T23:32:56.206Z,58.70
2023-06-27T23:35:26.867Z,58.90
2023-06-27T23:37:57.422Z,58.90
2023-06-27T23:40:26.708Z,59.00
2023-06-27T23:42:55.930Z,59.00
2023-06-27T23:45:25.044Z,59.20
2023-06-27T23:47:54.543Z,59.40
2023-06-27T23:50:23.759Z,59.40
2023-06-27T23:52:54.036Z,59.60
2023-06-27T23:55:23.125Z,59.50
2023-06-27T23:57:52.104Z,59.40
